sensor_id;sensor_type;location;lat;lon;timestamp;pressure;altitude;pressure_sealevel;temperature;humidity
84888;BME280;75150;54.494;18.518;2023-12-29T00:01:20;99520.97;;;5.96;76.21
84888;BME280;75150;54.494;18.518;2023-12-29T00:03:21;99520.44;;;5.91;76.54
84888;BME280;75150;54.494;18.518;2023-12-29T00:05:23;99520.75;;;5.86;76.53
84888;BME280;75150;54.494;18.518;2023-12-29T00:07:24;99514.97;;;5.81;77.25
84888;BME280;75150;54.494;18.518;2023-12-29T00:09:25;99509.84;;;5.80;76.81
84888;BME280;75150;54.494;18.518;2023-12-29T00:11:26;99511.63;;;5.79;76.95
84888;BME280;75150;54.494;18.518;2023-12-29T00:13:28;99513.44;;;5.79;76.92
84888;BME280;75150;54.494;18.518;2023-12-29T00:15:31;99509.47;;;5.73;77.03
84888;BME280;75150;54.494;18.518;2023-12-29T00:17:32;99508.75;;;5.71;76.78
84888;BME280;75150;54.494;18.518;2023-12-29T00:19:33;99506.31;;;5.68;76.98
84888;BME280;75150;54.494;18.518;2023-12-29T00:21:36;99504.66;;;5.67;77.12
84888;BME280;75150;54.494;18.518;2023-12-29T00:23:37;99507.41;;;5.66;77.06
84888;BME280;75150;54.494;18.518;2023-12-29T00:25:39;99496.88;;;5.66;77.17
84888;BME280;75150;54.494;18.518;2023-12-29T00:27:40;99503.09;;;5.65;77.63
84888;BME280;75150;54.494;18.518;2023-12-29T00:29:42;99488.28;;;5.64;77.20
84888;BME280;75150;54.494;18.518;2023-12-29T00:31:44;99493.53;;;5.64;76.91
84888;BME280;75150;54.494;18.518;2023-12-29T00:33:46;99485.75;;;5.62;77.21
84888;BME280;75150;54.494;18.518;2023-12-29T00:35:47;99490.91;;;5.64;77.01
84888;BME280;75150;54.494;18.518;2023-12-29T00:37:50;99475.13;;;5.64;77.58
84888;BME280;75150;54.494;18.518;2023-12-29T00:39:51;99487.56;;;5.62;77.27
84888;BME280;75150;54.494;18.518;2023-12-29T00:41:52;99490.19;;;5.62;77.19
84888;BME280;75150;54.494;18.518;2023-12-29T00:43:53;99484.94;;;5.62;77.42
84888;BME280;75150;54.494;18.518;2023-12-29T00:45:55;99490.19;;;5.62;77.20
84888;BME280;75150;54.494;18.518;2023-12-29T00:47:57;99488.28;;;5.64;77.31
84888;BME280;75150;54.494;18.518;2023-12-29T00:50:00;99486.50;;;5.64;77.30
84888;BME280;75150;54.494;18.518;2023-12-29T00:52:01;99489.22;;;5.63;77.07
84888;BME280;75150;54.494;18.518;2023-12-29T00:54:02;99483.97;;;5.63;77.00
84888;BME280;75150;54.494;18.518;2023-12-29T00:56:09;99491.03;;;5.62;77.14
84888;BME280;75150;54.494;18.518;2023-12-29T00:58:11;99483.97;;;5.63;77.46
84888;BME280;75150;54.494;18.518;2023-12-29T01:00:13;99469.16;;;5.62;77.34
84888;BME280;75150;54.494;18.518;2023-12-29T01:02:14;99476.09;;;5.63;77.31
84888;BME280;75150;54.494;18.518;2023-12-29T01:04:17;99471.66;;;5.63;76.87
84888;BME280;75150;54.494;18.518;2023-12-29T01:06:18;99467.50;;;5.61;77.08
84888;BME280;75150;54.494;18.518;2023-12-29T01:08:19;99468.44;;;5.59;77.41
84888;BME280;75150;54.494;18.518;2023-12-29T01:10:21;99473.81;;;5.58;76.91
84888;BME280;75150;54.494;18.518;2023-12-29T01:12:22;99460.66;;;5.58;77.03
84888;BME280;75150;54.494;18.518;2023-12-29T01:14:24;99462.22;;;5.61;77.20
84888;BME280;75150;54.494;18.518;2023-12-29T01:16:25;99465.56;;;5.63;76.93
84888;BME280;75150;54.494;18.518;2023-12-29T01:18:26;99457.47;;;5.66;76.80
84888;BME280;75150;54.494;18.518;2023-12-29T01:20:29;99449.56;;;5.66;77.12
84888;BME280;75150;54.494;18.518;2023-12-29T01:22:30;99444.19;;;5.67;77.06
84888;BME280;75150;54.494;18.518;2023-12-29T01:24:32;99441.47;;;5.69;76.81
84888;BME280;75150;54.494;18.518;2023-12-29T01:26:36;99436.31;;;5.67;77.16
84888;BME280;75150;54.494;18.518;2023-12-29T01:28:37;99433.09;;;5.64;76.96
84888;BME280;75150;54.494;18.518;2023-12-29T01:30:39;99431.31;;;5.64;76.63
84888;BME280;75150;54.494;18.518;2023-12-29T01:32:40;99432.25;;;5.63;76.75
84888;BME280;75150;54.494;18.518;2023-12-29T01:34:41;99423.53;;;5.63;77.21
84888;BME280;75150;54.494;18.518;2023-12-29T01:36:44;99422.81;;;5.61;77.15
84888;BME280;75150;54.494;18.518;2023-12-29T01:38:45;99416.72;;;5.60;76.88
84888;BME280;75150;54.494;18.518;2023-12-29T01:40:47;99405.50;;;5.58;76.99
84888;BME280;75150;54.494;18.518;2023-12-29T01:42:48;99403.91;;;5.55;77.05
84888;BME280;75150;54.494;18.518;2023-12-29T01:44:50;99400.56;;;5.53;76.85
84888;BME280;75150;54.494;18.518;2023-12-29T01:46:54;99391.00;;;5.52;76.80
84888;BME280;75150;54.494;18.518;2023-12-29T01:48:57;99390.16;;;5.52;77.51
84888;BME280;75150;54.494;18.518;2023-12-29T01:50:59;99387.31;;;5.55;77.37
84888;BME280;75150;54.494;18.518;2023-12-29T01:53:03;99388.13;;;5.55;77.21
84888;BME280;75150;54.494;18.518;2023-12-29T01:55:07;99380.50;;;5.52;77.54
84888;BME280;75150;54.494;18.518;2023-12-29T01:57:11;99377.03;;;5.52;76.74
84888;BME280;75150;54.494;18.518;2023-12-29T01:59:13;99390.41;;;5.49;77.53
84888;BME280;75150;54.494;18.518;2023-12-29T02:01:15;99385.38;;;5.46;77.37
84888;BME280;75150;54.494;18.518;2023-12-29T02:03:18;99371.63;;;5.42;77.27
84888;BME280;75150;54.494;18.518;2023-12-29T02:05:23;99374.47;;;5.39;77.46
84888;BME280;75150;54.494;18.518;2023-12-29T02:07:25;99374.72;;;5.36;77.25
84888;BME280;75150;54.494;18.518;2023-12-29T02:09:29;99365.47;;;5.30;77.48
84888;BME280;75150;54.494;18.518;2023-12-29T02:11:31;99357.13;;;5.25;77.30
84888;BME280;75150;54.494;18.518;2023-12-29T02:13:32;99365.34;;;5.21;77.16
84888;BME280;75150;54.494;18.518;2023-12-29T02:15:34;99358.50;;;5.18;77.75
84888;BME280;75150;54.494;18.518;2023-12-29T02:17:39;99350.03;;;5.15;77.81
84888;BME280;75150;54.494;18.518;2023-12-29T02:19:42;99354.44;;;5.14;78.22
84888;BME280;75150;54.494;18.518;2023-12-29T02:21:43;99348.47;;;5.12;78.58
84888;BME280;75150;54.494;18.518;2023-12-29T02:23:45;99347.84;;;5.09;77.63
84888;BME280;75150;54.494;18.518;2023-12-29T02:25:48;99345.31;;;5.07;77.88
84888;BME280;75150;54.494;18.518;2023-12-29T02:27:52;99349.13;;;5.03;78.10
84888;BME280;75150;54.494;18.518;2023-12-29T02:30:06;99355.56;;;4.99;78.80
84888;BME280;75150;54.494;18.518;2023-12-29T02:32:11;99350.53;;;4.96;78.58
84888;BME280;75150;54.494;18.518;2023-12-29T02:34:17;99356.00;;;4.93;78.38
84888;BME280;75150;54.494;18.518;2023-12-29T02:36:22;99349.31;;;4.89;79.04
84888;BME280;75150;54.494;18.518;2023-12-29T02:38:24;99347.63;;;4.88;78.53
84888;BME280;75150;54.494;18.518;2023-12-29T02:40:25;99353.19;;;4.83;78.58
84888;BME280;75150;54.494;18.518;2023-12-29T02:42:28;99313.94;;;4.82;78.59
84888;BME280;75150;54.494;18.518;2023-12-29T02:44:29;99307.13;;;4.79;78.53
84888;BME280;75150;54.494;18.518;2023-12-29T02:46:31;99317.88;;;4.76;78.99
84888;BME280;75150;54.494;18.518;2023-12-29T02:48:32;99323.13;;;4.76;78.64
84888;BME280;75150;54.494;18.518;2023-12-29T02:50:33;99316.19;;;4.75;78.69
84888;BME280;75150;54.494;18.518;2023-12-29T02:52:35;99316.31;;;4.74;78.49
84888;BME280;75150;54.494;18.518;2023-12-29T02:54:36;99320.59;;;4.75;78.87
84888;BME280;75150;54.494;18.518;2023-12-29T02:56:38;99318.94;;;4.74;78.92
84888;BME280;75150;54.494;18.518;2023-12-29T02:58:40;99313.88;;;4.70;79.46
84888;BME280;75150;54.494;18.518;2023-12-29T03:00:42;99322.50;;;4.73;78.76
84888;BME280;75150;54.494;18.518;2023-12-29T03:02:43;99320.81;;;4.71;78.65
84888;BME280;75150;54.494;18.518;2023-12-29T03:04:44;99322.50;;;4.73;79.12
84888;BME280;75150;54.494;18.518;2023-12-29T03:06:45;99324.19;;;4.74;78.73
84888;BME280;75150;54.494;18.518;2023-12-29T03:08:47;99333.00;;;4.73;78.83
84888;BME280;75150;54.494;18.518;2023-12-29T03:10:48;99323.34;;;4.73;78.95
84888;BME280;75150;54.494;18.518;2023-12-29T03:12:50;99325.13;;;4.73;78.60
84888;BME280;75150;54.494;18.518;2023-12-29T03:14:52;99317.03;;;4.76;79.70
84888;BME280;75150;54.494;18.518;2023-12-29T03:16:54;99309.66;;;4.81;78.87
84888;BME280;75150;54.494;18.518;2023-12-29T03:18:55;99306.47;;;4.88;78.83
84888;BME280;75150;54.494;18.518;2023-12-29T03:20:56;99298.97;;;4.95;79.32
84888;BME280;75150;54.494;18.518;2023-12-29T03:22:57;99302.13;;;5.00;78.64
84888;BME280;75150;54.494;18.518;2023-12-29T03:24:59;99309.53;;;5.06;78.77
84888;BME280;75150;54.494;18.518;2023-12-29T03:27:00;99295.84;;;5.14;78.47
84888;BME280;75150;54.494;18.518;2023-12-29T03:29:02;99293.69;;;5.19;78.09
84888;BME280;75150;54.494;18.518;2023-12-29T03:31:04;99289.06;;;5.22;78.31
84888;BME280;75150;54.494;18.518;2023-12-29T03:33:06;99292.41;;;5.24;77.73
84888;BME280;75150;54.494;18.518;2023-12-29T03:35:07;99287.88;;;5.26;77.94
84888;BME280;75150;54.494;18.518;2023-12-29T03:37:09;99286.94;;;5.27;77.95
84888;BME280;75150;54.494;18.518;2023-12-29T03:39:10;99287.63;;;5.29;77.78
84888;BME280;75150;54.494;18.518;2023-12-29T03:41:11;99284.06;;;5.30;77.55
84888;BME280;75150;54.494;18.518;2023-12-29T03:43:12;99274.19;;;5.34;77.61
84888;BME280;75150;54.494;18.518;2023-12-29T03:45:14;99273.94;;;5.37;77.80
84888;BME280;75150;54.494;18.518;2023-12-29T03:47:16;99268.94;;;5.34;77.23
84888;BME280;75150;54.494;18.518;2023-12-29T03:49:18;99269.00;;;5.33;77.61
84888;BME280;75150;54.494;18.518;2023-12-29T03:51:20;99265.91;;;5.27;77.01
84888;BME280;75150;54.494;18.518;2023-12-29T03:53:22;99271.63;;;5.21;77.49
84888;BME280;75150;54.494;18.518;2023-12-29T03:55:23;99265.88;;;5.16;77.69
84888;BME280;75150;54.494;18.518;2023-12-29T03:57:24;99259.19;;;5.12;77.59
84888;BME280;75150;54.494;18.518;2023-12-29T03:59:25;99258.81;;;5.06;77.40
84888;BME280;75150;54.494;18.518;2023-12-29T04:01:27;99265.25;;;5.02;77.58
84888;BME280;75150;54.494;18.518;2023-12-29T04:03:29;99257.72;;;4.97;77.85
84888;BME280;75150;54.494;18.518;2023-12-29T04:05:31;99253.63;;;4.93;77.74
84888;BME280;75150;54.494;18.518;2023-12-29T04:07:32;99253.03;;;4.89;77.86
84888;BME280;75150;54.494;18.518;2023-12-29T04:09:33;99246.94;;;4.89;78.39
84888;BME280;75150;54.494;18.518;2023-12-29T04:11:35;99253.03;;;4.89;77.68
84888;BME280;75150;54.494;18.518;2023-12-29T04:13:37;99261.97;;;4.87;78.15
84888;BME280;75150;54.494;18.518;2023-12-29T04:15:38;99249.81;;;4.86;77.78
84888;BME280;75150;54.494;18.518;2023-12-29T04:17:39;99251.69;;;4.84;78.21
84888;BME280;75150;54.494;18.518;2023-12-29T04:19:42;99257.03;;;4.82;78.31
84888;BME280;75150;54.494;18.518;2023-12-29T04:21:44;99245.72;;;4.82;78.52
84888;BME280;75150;54.494;18.518;2023-12-29T04:23:45;99245.59;;;4.83;78.42
84888;BME280;75150;54.494;18.518;2023-12-29T04:25:46;99237.50;;;4.86;78.53
84888;BME280;75150;54.494;18.518;2023-12-29T04:27:48;99223.91;;;4.92;78.73
84888;BME280;75150;54.494;18.518;2023-12-29T04:29:49;99225.16;;;4.99;77.98
84888;BME280;75150;54.494;18.518;2023-12-29T04:31:50;99217.75;;;5.05;78.18
84888;BME280;75150;54.494;18.518;2023-12-29T04:33:52;99208.78;;;5.07;77.73
84888;BME280;75150;54.494;18.518;2023-12-29T04:35:54;99205.22;;;5.08;77.77
84888;BME280;75150;54.494;18.518;2023-12-29T04:37:56;99193.78;;;5.09;78.14
84888;BME280;75150;54.494;18.518;2023-12-29T04:39:57;99197.97;;;5.12;77.94
84888;BME280;75150;54.494;18.518;2023-12-29T04:41:59;99189.97;;;5.13;77.52
84888;BME280;75150;54.494;18.518;2023-12-29T04:44:00;99191.63;;;5.14;77.66
84888;BME280;75150;54.494;18.518;2023-12-29T04:46:02;99192.72;;;5.12;77.25
84888;BME280;75150;54.494;18.518;2023-12-29T04:48:04;99204.28;;;5.09;77.78
84888;BME280;75150;54.494;18.518;2023-12-29T04:50:06;99196.63;;;5.06;77.59
84888;BME280;75150;54.494;18.518;2023-12-29T04:52:09;99195.66;;;5.07;77.91
84888;BME280;75150;54.494;18.518;2023-12-29T04:54:11;99193.78;;;5.09;77.87
84888;BME280;75150;54.494;18.518;2023-12-29T04:56:12;99183.88;;;5.13;77.78
84888;BME280;75150;54.494;18.518;2023-12-29T04:58:13;99181.00;;;5.16;77.87
84888;BME280;75150;54.494;18.518;2023-12-29T05:00:15;99175.53;;;5.19;77.74
84888;BME280;75150;54.494;18.518;2023-12-29T05:02:16;99180.44;;;5.23;77.81
84888;BME280;75150;54.494;18.518;2023-12-29T05:04:17;99170.66;;;5.25;77.84
84888;BME280;75150;54.494;18.518;2023-12-29T05:06:19;99188.19;;;5.25;77.57
84888;BME280;75150;54.494;18.518;2023-12-29T05:08:21;99189.16;;;5.24;77.78
84888;BME280;75150;54.494;18.518;2023-12-29T05:10:23;99186.53;;;5.24;78.10
84888;BME280;75150;54.494;18.518;2023-12-29T05:12:24;99184.63;;;5.26;77.64
84888;BME280;75150;54.494;18.518;2023-12-29T05:14:25;99191.28;;;5.30;77.58
84888;BME280;75150;54.494;18.518;2023-12-29T05:16:27;99181.41;;;5.34;77.34
84888;BME280;75150;54.494;18.518;2023-12-29T05:18:28;99180.34;;;5.36;77.66
84888;BME280;75150;54.494;18.518;2023-12-29T05:20:29;99177.59;;;5.38;77.19
84888;BME280;75150;54.494;18.518;2023-12-29T05:22:31;99173.88;;;5.40;77.59
84888;BME280;75150;54.494;18.518;2023-12-29T05:24:33;99173.03;;;5.40;77.42
84888;BME280;75150;54.494;18.518;2023-12-29T05:26:35;99175.66;;;5.40;77.13
84888;BME280;75150;54.494;18.518;2023-12-29T05:28:36;99157.53;;;5.37;77.21
84888;BME280;75150;54.494;18.518;2023-12-29T05:30:37;99161.44;;;5.31;77.23
84888;BME280;75150;54.494;18.518;2023-12-29T05:32:39;99159.19;;;5.26;77.46
84888;BME280;75150;54.494;18.518;2023-12-29T05:34:40;99160.16;;;5.25;77.24
84888;BME280;75150;54.494;18.518;2023-12-29T05:36:41;99162.78;;;5.25;77.60
84888;BME280;75150;54.494;18.518;2023-12-29T05:38:46;99159.91;;;5.28;77.84
84888;BME280;75150;54.494;18.518;2023-12-29T05:40:48;99166.69;;;5.31;77.65
84888;BME280;75150;54.494;18.518;2023-12-29T05:42:50;99162.19;;;5.33;77.45
84888;BME280;75150;54.494;18.518;2023-12-29T05:44:52;99165.16;;;5.40;77.38
84888;BME280;75150;54.494;18.518;2023-12-29T05:46:53;99161.13;;;5.47;77.56
84888;BME280;75150;54.494;18.518;2023-12-29T05:48:54;99160.63;;;5.53;77.20
84888;BME280;75150;54.494;18.518;2023-12-29T05:50:56;99157.66;;;5.57;77.18
84888;BME280;75150;54.494;18.518;2023-12-29T05:52:57;99153.25;;;5.58;77.39
84888;BME280;75150;54.494;18.518;2023-12-29T05:54:58;99160.16;;;5.59;76.88
84888;BME280;75150;54.494;18.518;2023-12-29T05:57:01;99148.69;;;5.60;76.85
84888;BME280;75150;54.494;18.518;2023-12-29T05:59:03;99150.34;;;5.61;76.93
84888;BME280;75150;54.494;18.518;2023-12-29T06:01:04;99149.41;;;5.62;77.19
84888;BME280;75150;54.494;18.518;2023-12-29T06:03:05;99147.47;;;5.64;76.84
84888;BME280;75150;54.494;18.518;2023-12-29T06:05:07;99149.16;;;5.65;77.33
84888;BME280;75150;54.494;18.518;2023-12-29T06:07:09;99138.63;;;5.65;77.42
84888;BME280;75150;54.494;18.518;2023-12-29T06:09:10;99130.88;;;5.64;76.83
84888;BME280;75150;54.494;18.518;2023-12-29T06:11:14;99141.66;;;5.61;77.25
84888;BME280;75150;54.494;18.518;2023-12-29T06:13:17;99134.00;;;5.57;77.49
84888;BME280;75150;54.494;18.518;2023-12-29T06:15:18;99133.50;;;5.52;77.81
84888;BME280;75150;54.494;18.518;2023-12-29T06:17:20;99128.50;;;5.49;77.45
84888;BME280;75150;54.494;18.518;2023-12-29T06:19:21;99140.56;;;5.52;77.86
84888;BME280;75150;54.494;18.518;2023-12-29T06:21:22;99132.94;;;5.49;78.00
84888;BME280;75150;54.494;18.518;2023-12-29T06:23:24;99132.94;;;5.49;77.92
84888;BME280;75150;54.494;18.518;2023-12-29T06:25:25;99132.09;;;5.48;78.39
84888;BME280;75150;54.494;18.518;2023-12-29T06:27:26;99128.50;;;5.49;78.08
84888;BME280;75150;54.494;18.518;2023-12-29T06:29:29;99112.63;;;5.51;78.11
84888;BME280;75150;54.494;18.518;2023-12-29T06:31:30;99125.38;;;5.55;78.26
84888;BME280;75150;54.494;18.518;2023-12-29T06:33:32;99124.44;;;5.56;77.81
84888;BME280;75150;54.494;18.518;2023-12-29T06:35:33;99120.97;;;5.56;78.15
84888;BME280;75150;54.494;18.518;2023-12-29T06:37:34;99115.72;;;5.56;77.69
84888;BME280;75150;54.494;18.518;2023-12-29T06:39:37;99120.13;;;5.55;77.96
84888;BME280;75150;54.494;18.518;2023-12-29T06:41:38;99117.50;;;5.55;78.16
84888;BME280;75150;54.494;18.518;2023-12-29T06:43:39;99117.50;;;5.55;77.61
84888;BME280;75150;54.494;18.518;2023-12-29T06:45:42;99109.50;;;5.57;77.60
84888;BME280;75150;54.494;18.518;2023-12-29T06:47:43;99115.50;;;5.59;77.70
84888;BME280;75150;54.494;18.518;2023-12-29T06:49:44;99111.78;;;5.62;77.83
84888;BME280;75150;54.494;18.518;2023-12-29T06:51:46;99099.47;;;5.62;77.65
84888;BME280;75150;54.494;18.518;2023-12-29T06:53:47;99103.66;;;5.65;78.00
84888;BME280;75150;54.494;18.518;2023-12-29T06:55:49;99108.66;;;5.68;77.72
84888;BME280;75150;54.494;18.518;2023-12-29T06:57:50;99111.88;;;5.71;77.53
84888;BME280;75150;54.494;18.518;2023-12-29T06:59:51;99110.94;;;5.72;77.50
84888;BME280;75150;54.494;18.518;2023-12-29T07:01:54;99109.84;;;5.75;77.51
84888;BME280;75150;54.494;18.518;2023-12-29T07:03:55;99109.72;;;5.76;77.60
84888;BME280;75150;54.494;18.518;2023-12-29T07:05:56;99102.41;;;5.80;77.57
84888;BME280;75150;54.494;18.518;2023-12-29T07:07:58;99103.84;;;5.84;77.29
84888;BME280;75150;54.494;18.518;2023-12-29T07:09:59;99112.19;;;5.89;77.19
84888;BME280;75150;54.494;18.518;2023-12-29T07:12:00;99105.75;;;5.93;77.28
84888;BME280;75150;54.494;18.518;2023-12-29T07:14:02;99109.94;;;5.96;76.83
84888;BME280;75150;54.494;18.518;2023-12-29T07:16:04;99110.53;;;5.99;76.65
84888;BME280;75150;54.494;18.518;2023-12-29T07:18:07;99112.06;;;6.02;77.07
84888;BME280;75150;54.494;18.518;2023-12-29T07:20:08;99107.53;;;6.04;76.88
84888;BME280;75150;54.494;18.518;2023-12-29T07:22:09;99096.88;;;6.05;76.86
84888;BME280;75150;54.494;18.518;2023-12-29T07:24:11;99103.56;;;6.09;76.94
84888;BME280;75150;54.494;18.518;2023-12-29T07:26:12;99111.34;;;6.11;77.01
84888;BME280;75150;54.494;18.518;2023-12-29T07:28:14;99103.56;;;6.09;77.10
84888;BME280;75150;54.494;18.518;2023-12-29T07:30:16;99098.44;;;6.08;77.14
84888;BME280;75150;54.494;18.518;2023-12-29T07:32:17;99094.16;;;6.07;78.10
84888;BME280;75150;54.494;18.518;2023-12-29T07:34:20;99094.25;;;6.05;77.79
84888;BME280;75150;54.494;18.518;2023-12-29T07:36:21;99096.16;;;6.03;77.95
84888;BME280;75150;54.494;18.518;2023-12-29T07:38:24;99094.63;;;6.01;77.94
84888;BME280;75150;54.494;18.518;2023-12-29T07:40:25;99092.00;;;6.01;77.74
84888;BME280;75150;54.494;18.518;2023-12-29T07:42:27;99084.25;;;5.99;77.63
84888;BME280;75150;54.494;18.518;2023-12-29T07:44:28;99087.84;;;5.98;78.02
84888;BME280;75150;54.494;18.518;2023-12-29T07:46:29;99089.50;;;5.99;77.72
84888;BME280;75150;54.494;18.518;2023-12-29T07:48:31;99096.16;;;6.03;77.60
84888;BME280;75150;54.494;18.518;2023-12-29T07:50:33;99075.13;;;6.03;77.93
84888;BME280;75150;54.494;18.518;2023-12-29T07:52:35;99086.47;;;6.04;77.76
84888;BME280;75150;54.494;18.518;2023-12-29T07:54:36;99088.97;;;6.05;77.52
84888;BME280;75150;54.494;18.518;2023-12-29T07:56:37;99088.16;;;6.05;77.83
84888;BME280;75150;54.494;18.518;2023-12-29T07:58:38;99082.88;;;6.05;77.81
84888;BME280;75150;54.494;18.518;2023-12-29T08:00:40;99086.34;;;6.05;78.18
84888;BME280;75150;54.494;18.518;2023-12-29T08:02:41;99074.91;;;6.06;77.65
84888;BME280;75150;54.494;18.518;2023-12-29T08:04:43;99081.00;;;6.07;77.90
84888;BME280;75150;54.494;18.518;2023-12-29T08:06:45;99079.06;;;6.09;77.65
84888;BME280;75150;54.494;18.518;2023-12-29T08:08:47;99055.28;;;6.10;77.48
84888;BME280;75150;54.494;18.518;2023-12-29T08:10:48;99064.69;;;6.13;77.31
84888;BME280;75150;54.494;18.518;2023-12-29T08:12:49;99061.81;;;6.16;77.33
84888;BME280;75150;54.494;18.518;2023-12-29T08:14:51;99060.75;;;6.19;77.24
84888;BME280;75150;54.494;18.518;2023-12-29T08:16:52;99061.31;;;6.22;77.37
84888;BME280;75150;54.494;18.518;2023-12-29T08:18:53;99055.09;;;6.23;77.26
84888;BME280;75150;54.494;18.518;2023-12-29T08:20:55;99059.25;;;6.26;76.96
84888;BME280;75150;54.494;18.518;2023-12-29T08:22:57;99060.94;;;6.27;77.15
84888;BME280;75150;54.494;18.518;2023-12-29T08:24:59;99070.34;;;6.29;77.12
84888;BME280;75150;54.494;18.518;2023-12-29T08:27:00;99054.34;;;6.32;76.58
84888;BME280;75150;54.494;18.518;2023-12-29T08:29:02;99053.13;;;6.36;76.57
84888;BME280;75150;54.494;18.518;2023-12-29T08:31:03;99048.69;;;6.37;76.48
84888;BME280;75150;54.494;18.518;2023-12-29T08:33:04;99051.19;;;6.38;76.25
84888;BME280;75150;54.494;18.518;2023-12-29T08:35:06;99045.66;;;6.41;76.52
84888;BME280;75150;54.494;18.518;2023-12-29T08:37:07;99043.03;;;6.41;76.26
84888;BME280;75150;54.494;18.518;2023-12-29T08:39:10;99045.56;;;6.43;76.56
84888;BME280;75150;54.494;18.518;2023-12-29T08:41:13;99051.66;;;6.43;76.33
84888;BME280;75150;54.494;18.518;2023-12-29T08:43:14;99044.59;;;6.44;76.00
84888;BME280;75150;54.494;18.518;2023-12-29T08:45:16;99032.28;;;6.44;75.99
84888;BME280;75150;54.494;18.518;2023-12-29T08:47:17;99026.75;;;6.47;75.74
84888;BME280;75150;54.494;18.518;2023-12-29T08:49:19;99035.34;;;6.50;75.90
84888;BME280;75150;54.494;18.518;2023-12-29T08:51:20;99046.56;;;6.52;75.90
84888;BME280;75150;54.494;18.518;2023-12-29T08:53:22;99033.28;;;6.53;75.74
84888;BME280;75150;54.494;18.518;2023-12-29T08:55:24;99022.66;;;6.55;75.75
84888;BME280;75150;54.494;18.518;2023-12-29T08:57:26;99039.13;;;6.57;75.99
84888;BME280;75150;54.494;18.518;2023-12-29T08:59:27;99024.88;;;6.59;75.66
84888;BME280;75150;54.494;18.518;2023-12-29T09:01:28;99050.78;;;6.64;75.80
84888;BME280;75150;54.494;18.518;2023-12-29T09:03:29;99037.41;;;6.67;75.67
84888;BME280;75150;54.494;18.518;2023-12-29T09:05:31;99049.06;;;6.74;75.68
84888;BME280;75150;54.494;18.518;2023-12-29T09:07:32;99047.81;;;6.78;75.37
84888;BME280;75150;54.494;18.518;2023-12-29T09:09:34;99045.19;;;6.78;75.55
84888;BME280;75150;54.494;18.518;2023-12-29T09:11:36;99056.44;;;6.80;75.79
84888;BME280;75150;54.494;18.518;2023-12-29T09:13:37;99049.38;;;6.81;75.60
84888;BME280;75150;54.494;18.518;2023-12-29T09:15:39;99049.53;;;6.79;75.82
84888;BME280;75150;54.494;18.518;2023-12-29T09:17:40;99058.34;;;6.78;75.86
84888;BME280;75150;54.494;18.518;2023-12-29T09:19:41;99056.69;;;6.77;76.27
84888;BME280;75150;54.494;18.518;2023-12-29T09:21:43;99059.72;;;6.72;76.68
84888;BME280;75150;54.494;18.518;2023-12-29T09:23:44;99072.88;;;6.72;76.52
84888;BME280;75150;54.494;18.518;2023-12-29T09:25:46;99065.25;;;6.69;77.05
84888;BME280;75150;54.494;18.518;2023-12-29T09:27:48;99066.59;;;6.64;77.88
84888;BME280;75150;54.494;18.518;2023-12-29T09:29:50;99088.88;;;6.60;78.04
84888;BME280;75150;54.494;18.518;2023-12-29T09:31:51;99069.19;;;6.54;78.85
84888;BME280;75150;54.494;18.518;2023-12-29T09:33:53;99098.34;;;6.51;78.25
84888;BME280;75150;54.494;18.518;2023-12-29T09:35:54;99089.06;;;6.47;78.86
84888;BME280;75150;54.494;18.518;2023-12-29T09:37:55;99093.75;;;6.43;78.92
84888;BME280;75150;54.494;18.518;2023-12-29T09:39:57;99113.50;;;6.38;78.85
84888;BME280;75150;54.494;18.518;2023-12-29T09:41:58;99103.38;;;6.33;79.66
84888;BME280;75150;54.494;18.518;2023-12-29T09:44:03;99107.31;;;6.28;80.23
84888;BME280;75150;54.494;18.518;2023-12-29T09:46:08;99130.66;;;6.21;81.05
84888;BME280;75150;54.494;18.518;2023-12-29T09:48:11;99125.91;;;6.15;80.78
84888;BME280;75150;54.494;18.518;2023-12-29T09:50:14;99123.78;;;6.09;80.73
84888;BME280;75150;54.494;18.518;2023-12-29T09:52:16;99139.19;;;6.02;81.37
84888;BME280;75150;54.494;18.518;2023-12-29T09:54:18;99139.84;;;5.95;82.27
84888;BME280;75150;54.494;18.518;2023-12-29T09:56:19;99148.06;;;5.90;81.14
84888;BME280;75150;54.494;18.518;2023-12-29T09:58:21;99147.72;;;5.83;81.75
84888;BME280;75150;54.494;18.518;2023-12-29T10:00:25;99150.81;;;5.77;81.42
84888;BME280;75150;54.494;18.518;2023-12-29T10:02:26;99142.59;;;5.71;81.01
84888;BME280;75150;54.494;18.518;2023-12-29T10:04:27;99129.09;;;5.64;81.82
84888;BME280;75150;54.494;18.518;2023-12-29T10:06:31;99139.84;;;5.61;82.13
84888;BME280;75150;54.494;18.518;2023-12-29T10:08:37;99104.25;;;5.57;81.83
84888;BME280;75150;54.494;18.518;2023-12-29T10:10:40;99078.91;;;5.56;81.88
84888;BME280;75150;54.494;18.518;2023-12-29T10:12:43;99051.69;;;5.57;81.54
84888;BME280;75150;54.494;18.518;2023-12-29T10:14:50;99039.41;;;5.57;81.80
84888;BME280;75150;54.494;18.518;2023-12-29T10:17:02;99044.28;;;5.62;82.14
84888;BME280;75150;54.494;18.518;2023-12-29T10:19:10;99035.31;;;5.65;82.69
84888;BME280;75150;54.494;18.518;2023-12-29T10:21:26;99029.94;;;5.66;82.16
84888;BME280;75150;54.494;18.518;2023-12-29T10:23:32;99026.13;;;5.70;82.42
84888;BME280;75150;54.494;18.518;2023-12-29T10:25:37;99043.44;;;5.73;82.05
84888;BME280;75150;54.494;18.518;2023-12-29T10:27:38;99042.22;;;5.77;81.69
84888;BME280;75150;54.494;18.518;2023-12-29T10:29:40;99053.56;;;5.77;82.22
84888;BME280;75150;54.494;18.518;2023-12-29T10:31:41;99056.66;;;5.82;82.63
84888;BME280;75150;54.494;18.518;2023-12-29T10:33:44;99057.25;;;5.86;82.72
84888;BME280;75150;54.494;18.518;2023-12-29T10:35:56;99053.53;;;5.88;83.46
84888;BME280;75150;54.494;18.518;2023-12-29T10:38:08;99050.69;;;5.92;82.86
84888;BME280;75150;54.494;18.518;2023-12-29T10:40:16;99048.53;;;5.97;83.18
84888;BME280;75150;54.494;18.518;2023-12-29T10:42:18;99044.81;;;5.99;82.75
84888;BME280;75150;54.494;18.518;2023-12-29T10:44:19;99045.03;;;6.07;82.21
84888;BME280;75150;54.494;18.518;2023-12-29T10:46:20;99041.88;;;6.13;82.56